Time;durP1;ratioP1;P1;durP2;ratioP2;P2;SDS_P1;SDS_P2;PMS_P1;PMS_P2;Temp;Humidity;BMP_temperature;BMP_pressure;BME280_temperature;BME280_humidity;BME280_pressure;Samples;Min_cycle;Max_cycle;Signal;HPM_P1;HPM_P2
2022/04/22 00:00:11;;;;;;;6.57;4.53;;;;;;;;;;4989472;28;100004;-74
2022/04/22 00:02:39;;;;;;;6.03;4.60;;;;;;;;;;4989235;28;98583;-75
2022/04/22 00:05:05;;;;;;;4.60;3.95;;;;;;;;;;5004559;28;99843;-75
2022/04/22 00:07:31;;;;;;;7.88;4.60;;;;;;;;;;5002755;28;100144;-75
2022/04/22 00:09:58;;;;;;;6.90;5.07;;;;;;;;;;5009338;28;98568;-75
2022/04/22 00:12:25;;;;;;;4.70;4.30;;;;;;;;;;5006335;28;101067;-75
2022/04/22 00:14:51;;;;;;;5.43;4.93;;;;;;;;;;5008427;28;99744;-75
2022/04/22 00:17:17;;;;;;;6.60;5.13;;;;;;;;;;5003659;28;98572;-74
2022/04/22 00:19:44;;;;;;;7.05;4.97;;;;;;;;;;5010476;28;99265;-75
2022/04/22 00:22:10;;;;;;;5.20;4.75;;;;;;;;;;5008480;28;99322;-75
2022/04/22 00:24:36;;;;;;;7.03;4.90;;;;;;;;;;5005137;28;99811;-74
2022/04/22 00:27:03;;;;;;;8.30;5.38;;;;;;;;;;5011557;28;100299;-74
2022/04/22 00:29:30;;;;;;;8.48;5.28;;;;;;;;;;5011439;28;98905;-74
2022/04/22 00:31:56;;;;;;;5.18;4.78;;;;;;;;;;5010885;28;99977;-74
2022/04/22 00:34:22;;;;;;;8.23;5.22;;;;;;;;;;5010766;28;100417;-74
2022/04/22 00:36:49;;;;;;;6.90;4.55;;;;;;;;;;5010426;28;98524;-72
2022/04/22 00:39:16;;;;;;;5.63;5.10;;;;;;;;;;5015483;28;99192;-73
2022/04/22 00:41:43;;;;;;;4.78;4.38;;;;;;;;;;5011101;28;98655;-74
2022/04/22 00:44:10;;;;;;;7.07;4.78;;;;;;;;;;5010747;28;99910;-73
2022/04/22 00:46:37;;;;;;;8.68;4.60;;;;;;;;;;5010895;28;101006;-73
2022/04/22 00:49:03;;;;;;;11.55;5.40;;;;;;;;;;5011399;28;98535;-74
2022/04/22 00:51:30;;;;;;;9.07;5.70;;;;;;;;;;5012534;28;100030;-74
2022/04/22 00:53:56;;;;;;;9.82;5.50;;;;;;;;;;4998541;28;99187;-74
2022/04/22 00:56:23;;;;;;;8.38;5.53;;;;;;;;;;5012432;28;98523;-74
2022/04/22 00:58:50;;;;;;;5.57;5.07;;;;;;;;;;5013593;28;99963;-73
2022/04/22 01:01:16;;;;;;;7.97;5.50;;;;;;;;;;4987141;28;99118;-75
2022/04/22 01:09:47;;;;;;;7.03;5.70;;;;;;;;;;4987316;28;99915;-74
2022/04/22 01:12:01;;;;;;;6.38;5.47;;;;;;;;;;5004697;28;100082;-74
2022/04/22 01:14:28;;;;;;;10.52;5.82;;;;;;;;;;5011186;28;100201;-74
2022/04/22 01:16:55;;;;;;;6.82;5.47;;;;;;;;;;5010673;28;99764;-74
2022/04/22 01:19:21;;;;;;;6.53;5.38;;;;;;;;;;5011768;28;99178;-74
2022/04/22 01:21:47;;;;;;;5.97;5.43;;;;;;;;;;5012349;28;99396;-74
2022/04/22 01:24:14;;;;;;;6.20;4.47;;;;;;;;;;4991445;28;100205;-74
2022/04/22 01:26:41;;;;;;;6.07;5.30;;;;;;;;;;4991650;28;100667;-74
2022/04/22 01:29:07;;;;;;;8.65;5.68;;;;;;;;;;4991898;28;97798;-74
2022/04/22 01:31:34;;;;;;;7.43;5.32;;;;;;;;;;5006896;28;99681;-74
2022/04/22 01:34:01;;;;;;;6.88;5.25;;;;;;;;;;5003442;28;100375;-74
2022/04/22 01:36:27;;;;;;;5.68;5.03;;;;;;;;;;5010343;28;99351;-74
2022/04/22 01:38:55;;;;;;;7.97;4.95;;;;;;;;;;5010407;28;100798;-74
2022/04/22 01:41:21;;;;;;;5.72;5.15;;;;;;;;;;5009826;28;100254;-74
2022/04/22 01:43:48;;;;;;;9.27;5.35;;;;;;;;;;5014789;28;98732;-74
2022/04/22 01:46:15;;;;;;;15.20;6.20;;;;;;;;;;5009851;28;99622;-74
2022/04/22 01:48:42;;;;;;;5.72;5.18;;;;;;;;;;5009098;28;98558;-74
2022/04/22 01:51:08;;;;;;;8.82;5.68;;;;;;;;;;5009280;28;99539;-74
2022/04/22 01:53:35;;;;;;;9.43;4.85;;;;;;;;;;4995518;28;99534;-74
2022/04/22 01:56:01;;;;;;;8.07;5.85;;;;;;;;;;4991498;28;98483;-74
2022/04/22 01:58:28;;;;;;;7.70;5.82;;;;;;;;;;5010142;28;99304;-74
2022/04/22 02:00:54;;;;;;;7.88;5.93;;;;;;;;;;5009984;28;100145;-74
2022/04/22 02:03:20;;;;;;;8.23;5.25;;;;;;;;;;5009297;28;98506;-74
2022/04/22 02:05:47;;;;;;;6.32;5.32;;;;;;;;;;5014921;28;98872;-73
2022/04/22 02:08:13;;;;;;;6.78;5.20;;;;;;;;;;4999598;28;99366;-74
2022/04/22 02:10:41;;;;;;;8.90;6.28;;;;;;;;;;4990302;28;99938;-74
2022/04/22 02:13:08;;;;;;;7.25;5.75;;;;;;;;;;5007829;28;100473;-74
2022/04/22 02:15:35;;;;;;;11.23;5.57;;;;;;;;;;5010911;28;98567;-74
2022/04/22 02:18:01;;;;;;;12.35;5.15;;;;;;;;;;4997294;28;99880;-73
2022/04/22 02:20:27;;;;;;;6.15;5.65;;;;;;;;;;4990774;28;100291;-74
2022/04/22 02:22:54;;;;;;;9.80;5.32;;;;;;;;;;4995545;28;98531;-73
2022/04/22 02:25:20;;;;;;;12.80;5.20;;;;;;;;;;4990281;28;100397;-73
2022/04/22 02:30:31;;;;;;;5.80;5.30;;;;;;;;;;5010604;28;99141;-73
2022/04/22 02:32:58;;;;;;;6.38;5.32;;;;;;;;;;5008651;28;99178;-73
2022/04/22 02:35:24;;;;;;;9.68;4.90;;;;;;;;;;5010891;28;98498;-74
2022/04/22 02:37:52;;;;;;;5.53;4.90;;;;;;;;;;5009390;28;100302;-74
2022/04/22 02:45:49;;;;;;;6.95;4.90;;;;;;;;;;5010133;28;98583;-74
2022/04/22 02:48:15;;;;;;;12.00;5.32;;;;;;;;;;5006932;28;100276;-74
2022/04/22 02:50:42;;;;;;;8.80;5.30;;;;;;;;;;5013482;28;99279;-74
2022/04/22 02:53:08;;;;;;;7.78;6.00;;;;;;;;;;4993981;28;100181;-74
2022/04/22 02:55:38;;;;;;;7.05;6.32;;;;;;;;;;4990186;28;98545;-75
2022/04/22 02:58:06;;;;;;;10.02;6.25;;;;;;;;;;5003586;28;99980;-74
2022/04/22 03:00:32;;;;;;;9.40;6.18;;;;;;;;;;4987000;28;99933;-74
2022/04/22 03:02:58;;;;;;;7.78;6.47;;;;;;;;;;4978651;28;98906;-74
2022/04/22 03:05:25;;;;;;;8.43;6.65;;;;;;;;;;4991192;28;100049;-74
2022/04/22 03:07:51;;;;;;;8.38;6.03;;;;;;;;;;5002189;28;101414;-74
2022/04/22 03:10:18;;;;;;;14.05;6.88;;;;;;;;;;5012334;28;98502;-74
2022/04/22 03:12:44;;;;;;;7.95;6.47;;;;;;;;;;5009285;28;100097;-74
2022/04/22 03:15:10;;;;;;;7.80;6.35;;;;;;;;;;5007663;28;99331;-74
2022/04/22 03:17:37;;;;;;;9.07;7.32;;;;;;;;;;5010039;28;100770;-74
2022/04/22 03:20:04;;;;;;;8.55;6.80;;;;;;;;;;5008346;28;100194;-75
2022/04/22 03:22:31;;;;;;;9.95;7.00;;;;;;;;;;5000621;28;98861;-74
2022/04/22 03:24:57;;;;;;;9.38;7.45;;;;;;;;;;5001396;28;100051;-74
2022/04/22 03:27:23;;;;;;;11.30;7.35;;;;;;;;;;5009897;28;100273;-74
2022/04/22 03:29:50;;;;;;;8.40;7.60;;;;;;;;;;5008400;28;98929;-74
2022/04/22 03:32:16;;;;;;;8.70;7.43;;;;;;;;;;5013883;28;100052;-75
2022/04/22 03:34:42;;;;;;;12.18;5.93;;;;;;;;;;5007964;28;98539;-74
2022/04/22 03:37:09;;;;;;;8.40;6.80;;;;;;;;;;5010082;28;100497;-74
2022/04/22 03:39:35;;;;;;;13.10;7.82;;;;;;;;;;5007145;28;100354;-74
2022/04/22 03:42:01;;;;;;;8.70;7.57;;;;;;;;;;5007772;28;98600;-74
2022/04/22 03:44:28;;;;;;;9.25;7.47;;;;;;;;;;5008116;28;100947;-74
2022/04/22 03:46:54;;;;;;;7.45;6.75;;;;;;;;;;5008202;28;100260;-74
2022/04/22 03:49:20;;;;;;;8.63;7.22;;;;;;;;;;5009354;28;98603;-75
2022/04/22 03:51:47;;;;;;;11.63;7.93;;;;;;;;;;5002713;28;100809;-73
2022/04/22 03:54:18;;;;;;;11.15;8.10;;;;;;;;;;5000738;28;100126;-74
2022/04/22 03:59:29;;;;;;;12.27;8.52;;;;;;;;;;5009050;28;100280;-74
2022/04/22 04:01:57;;;;;;;9.57;8.30;;;;;;;;;;5008244;28;100312;-73
2022/04/22 04:04:23;;;;;;;7.88;5.93;;;;;;;;;;5006896;28;100917;-74
2022/04/22 04:06:50;;;;;;;9.80;8.07;;;;;;;;;;5000191;28;100002;-73
2022/04/22 04:17:42;;;;;;;9.15;7.88;;;;;;;;;;5008478;28;98967;-74
2022/04/22 04:25:41;;;;;;;9.77;8.77;;;;;;;;;;5000724;28;99072;-74
2022/04/22 04:28:10;;;;;;;9.40;8.05;;;;;;;;;;5008961;28;100287;-74
2022/04/22 04:30:37;;;;;;;10.27;9.05;;;;;;;;;;4998482;28;99276;-74
2022/04/22 04:33:04;;;;;;;12.18;9.07;;;;;;;;;;4988612;28;100762;-74
2022/04/22 04:35:31;;;;;;;12.77;8.00;;;;;;;;;;4999640;28;100319;-74
2022/04/22 04:37:57;;;;;;;10.25;8.20;;;;;;;;;;5008487;28;98476;-74
2022/04/22 04:40:24;;;;;;;8.93;8.02;;;;;;;;;;5010568;28;100105;-74
2022/04/22 04:42:53;;;;;;;9.10;8.25;;;;;;;;;;5002390;28;98528;-74
2022/04/22 04:45:20;;;;;;;8.57;7.78;;;;;;;;;;4985473;28;100066;-74
2022/04/22 04:47:47;;;;;;;9.35;7.85;;;;;;;;;;4989385;28;98634;-74
2022/04/22 04:50:13;;;;;;;9.30;8.45;;;;;;;;;;4981407;28;99928;-75
2022/04/22 04:52:41;;;;;;;10.10;8.52;;;;;;;;;;4987364;28;99948;-75
2022/04/22 04:55:08;;;;;;;10.15;8.93;;;;;;;;;;4991667;28;100264;-73
2022/04/22 04:57:34;;;;;;;9.73;8.73;;;;;;;;;;4987148;28;99227;-74
2022/04/22 05:00:05;;;;;;;9.48;8.57;;;;;;;;;;4991955;28;99974;-75
2022/04/22 05:02:35;;;;;;;9.32;8.50;;;;;;;;;;4989279;28;100460;-74
2022/04/22 05:05:01;;;;;;;14.10;8.13;;;;;;;;;;4993137;28;99322;-74
2022/04/22 05:07:28;;;;;;;9.30;8.38;;;;;;;;;;4990724;28;99876;-73
2022/04/22 05:09:54;;;;;;;9.90;7.78;;;;;;;;;;4994865;28;99369;-74
2022/04/22 05:12:20;;;;;;;8.13;7.32;;;;;;;;;;4999387;28;100264;-73
2022/04/22 05:14:46;;;;;;;12.70;8.82;;;;;;;;;;4996315;28;100505;-74
2022/04/22 05:17:13;;;;;;;13.90;8.65;;;;;;;;;;4995687;28;99046;-74
2022/04/22 05:19:40;;;;;;;9.10;7.47;;;;;;;;;;5011386;28;100369;-74
2022/04/22 05:22:06;;;;;;;11.18;8.32;;;;;;;;;;5010487;28;99333;-74
2022/04/22 05:24:34;;;;;;;13.40;9.48;;;;;;;;;;5010487;28;98955;-74
2022/04/22 05:27:01;;;;;;;9.50;8.57;;;;;;;;;;5010177;28;100352;-74
2022/04/22 05:34:58;;;;;;;14.60;9.30;;;;;;;;;;4985129;28;99623;-74
2022/04/22 05:37:24;;;;;;;16.50;10.57;;;;;;;;;;4996170;28;97969;-74
2022/04/22 05:39:51;;;;;;;14.13;10.75;;;;;;;;;;4995234;28;99531;-73
2022/04/22 05:42:17;;;;;;;10.80;9.73;;;;;;;;;;4990974;28;99194;-74
2022/04/22 05:44:43;;;;;;;11.75;10.00;;;;;;;;;;4994347;28;99261;-74
2022/04/22 05:47:09;;;;;;;11.23;10.15;;;;;;;;;;4990369;28;100207;-77
2022/04/22 05:49:36;;;;;;;12.90;10.38;;;;;;;;;;5003668;28;99835;-74
2022/04/22 05:52:02;;;;;;;12.82;11.13;;;;;;;;;;5001352;28;100222;-74
2022/04/22 05:54:30;;;;;;;13.50;12.10;;;;;;;;;;5000368;28;99325;-73
2022/04/22 05:56:57;;;;;;;10.63;9.35;;;;;;;;;;4979724;28;99401;-74
2022/04/22 05:59:24;;;;;;;15.88;11.07;;;;;;;;;;4992229;28;99128;-74
2022/04/22 06:01:50;;;;;;;17.20;11.80;;;;;;;;;;4990942;28;99740;-73
2022/04/22 06:04:17;;;;;;;18.05;11.88;;;;;;;;;;4992335;28;98919;-73
2022/04/22 06:06:43;;;;;;;22.65;11.82;;;;;;;;;;4995514;28;100337;-73
2022/04/22 06:11:58;;;;;;;25.27;14.18;;;;;;;;;;4989884;28;100976;-73
2022/04/22 06:14:24;;;;;;;13.15;11.50;;;;;;;;;;4984997;28;99330;-73
2022/04/22 06:16:51;;;;;;;17.98;12.10;;;;;;;;;;4986783;28;99761;-73
2022/04/22 06:19:18;;;;;;;18.25;12.65;;;;;;;;;;4982003;28;100004;-74
2022/04/22 06:21:45;;;;;;;20.00;13.07;;;;;;;;;;4995567;28;100459;-73
2022/04/22 06:24:11;;;;;;;15.63;12.18;;;;;;;;;;4988524;28;100357;-74
2022/04/22 06:26:38;;;;;;;12.25;10.88;;;;;;;;;;4991512;28;100062;-73
2022/04/22 06:29:04;;;;;;;21.42;13.50;;;;;;;;;;4985687;28;100441;-74
2022/04/22 06:31:31;;;;;;;20.80;12.90;;;;;;;;;;4989837;28;102822;-73
2022/04/22 06:33:57;;;;;;;25.30;13.05;;;;;;;;;;4997499;28;100788;-73
2022/04/22 06:36:27;;;;;;;16.98;11.48;;;;;;;;;;4996786;28;98975;-74
2022/04/22 06:38:58;;;;;;;18.38;13.52;;;;;;;;;;4993105;27;99916;-74
2022/04/22 06:46:55;;;;;;;15.77;12.10;;;;;;;;;;5005011;28;100258;-75
2022/04/22 06:49:23;;;;;;;16.33;11.52;;;;;;;;;;5001816;28;100043;-74
2022/04/22 06:51:50;;;;;;;21.00;12.63;;;;;;;;;;5006920;28;97845;-73
2022/04/22 06:54:17;;;;;;;14.77;10.57;;;;;;;;;;4989568;28;100350;-73
2022/04/22 06:56:45;;;;;;;14.80;10.73;;;;;;;;;;4989683;28;98603;-72
2022/04/22 06:59:11;;;;;;;15.73;12.05;;;;;;;;;;4995446;28;100065;-72
2022/04/22 07:01:38;;;;;;;14.50;10.68;;;;;;;;;;5008849;28;100476;-72
2022/04/22 07:04:10;;;;;;;14.40;11.07;;;;;;;;;;5009842;28;98649;-73
2022/04/22 07:06:36;;;;;;;19.10;12.55;;;;;;;;;;5009237;28;99993;-73
2022/04/22 07:09:04;;;;;;;12.98;9.77;;;;;;;;;;5009352;28;100182;-72
2022/04/22 07:11:30;;;;;;;14.60;10.00;;;;;;;;;;5010021;28;98569;-73
2022/04/22 07:14:00;;;;;;;12.38;10.60;;;;;;;;;;5011870;28;100342;-73
2022/04/22 07:16:27;;;;;;;13.70;11.05;;;;;;;;;;5009861;28;98585;-73
2022/04/22 07:18:53;;;;;;;11.20;10.10;;;;;;;;;;5009539;28;99310;-73
2022/04/22 07:21:20;;;;;;;11.48;10.25;;;;;;;;;;5006025;28;100395;-73
2022/04/22 07:23:47;;;;;;;13.05;9.93;;;;;;;;;;5002964;28;99240;-72
2022/04/22 07:26:15;;;;;;;14.10;9.88;;;;;;;;;;5009511;28;99888;-73
2022/04/22 07:28:43;;;;;;;18.08;10.73;;;;;;;;;;5009049;28;100242;-73
2022/04/22 07:31:10;;;;;;;12.90;9.43;;;;;;;;;;5009465;28;98509;-73
2022/04/22 07:33:36;;;;;;;10.68;9.52;;;;;;;;;;4988862;28;99245;-73
2022/04/22 07:36:03;;;;;;;12.52;10.18;;;;;;;;;;4990197;28;98554;-73
2022/04/22 07:38:29;;;;;;;13.40;9.30;;;;;;;;;;4989175;28;100724;-73
2022/04/22 07:40:56;;;;;;;14.02;10.20;;;;;;;;;;4989332;28;99574;-73
2022/04/22 07:48:59;;;;;;;11.05;9.00;;;;;;;;;;4967976;28;101583;-73
2022/04/22 07:51:25;;;;;;;21.13;8.23;;;;;;;;;;4980224;28;98533;-73
2022/04/22 07:53:52;;;;;;;12.00;8.98;;;;;;;;;;5009941;28;99943;-73
2022/04/22 07:56:18;;;;;;;19.98;9.45;;;;;;;;;;5002194;28;100400;-73
2022/04/22 07:58:45;;;;;;;15.48;8.52;;;;;;;;;;4969581;28;99964;-73
2022/04/22 08:01:11;;;;;;;10.30;8.15;;;;;;;;;;4969642;28;100356;-73
2022/04/22 08:03:37;;;;;;;10.38;7.20;;;;;;;;;;4985357;28;98485;-73
2022/04/22 08:06:07;;;;;;;9.45;8.52;;;;;;;;;;4988533;28;100463;-73
2022/04/22 08:08:33;;;;;;;14.68;8.82;;;;;;;;;;4969350;28;99491;-74
2022/04/22 08:10:59;;;;;;;12.90;8.25;;;;;;;;;;4969442;28;98516;-74
2022/04/22 08:13:26;;;;;;;10.88;8.02;;;;;;;;;;4970415;28;99253;-73
2022/04/22 08:15:52;;;;;;;8.73;7.80;;;;;;;;;;4969653;28;99628;-73
2022/04/22 08:18:19;;;;;;;10.95;7.43;;;;;;;;;;4972936;28;98838;-73
2022/04/22 08:20:45;;;;;;;12.50;8.20;;;;;;;;;;4969299;28;100114;-73
2022/04/22 08:23:11;;;;;;;12.93;8.27;;;;;;;;;;4988854;28;99100;-73
2022/04/22 08:25:38;;;;;;;10.27;7.38;;;;;;;;;;4989510;28;98995;-73
2022/04/22 08:28:04;;;;;;;10.55;8.18;;;;;;;;;;4988960;28;100364;-73
2022/04/22 08:30:31;;;;;;;10.70;7.45;;;;;;;;;;4989065;28;98274;-73
2022/04/22 08:33:01;;;;;;;7.93;7.13;;;;;;;;;;4989033;28;98510;-73
2022/04/22 08:35:28;;;;;;;9.77;6.72;;;;;;;;;;4988596;28;100221;-73
2022/04/22 08:37:54;;;;;;;7.88;6.93;;;;;;;;;;4990612;28;99315;-73
2022/04/22 08:40:20;;;;;;;8.25;7.45;;;;;;;;;;4995574;28;100874;-73
2022/04/22 08:42:47;;;;;;;10.25;8.30;;;;;;;;;;4992640;28;98525;-73
2022/04/22 08:45:14;;;;;;;8.52;7.63;;;;;;;;;;4991319;28;102923;-73
2022/04/22 08:50:26;;;;;;;8.25;7.13;;;;;;;;;;4992860;28;98527;-73
2022/04/22 08:52:56;;;;;;;11.77;6.38;;;;;;;;;;4991687;28;99921;-73
2022/04/22 08:55:24;;;;;;;9.07;7.05;;;;;;;;;;4992504;28;99437;-73
2022/04/22 08:57:51;;;;;;;8.85;6.65;;;;;;;;;;4992695;28;98528;-73
2022/04/22 09:00:18;;;;;;;8.32;7.13;;;;;;;;;;4992006;28;99396;-73
2022/04/22 09:02:44;;;;;;;14.80;7.05;;;;;;;;;;4994436;28;100795;-73
2022/04/22 09:05:11;;;;;;;6.50;5.90;;;;;;;;;;4991940;28;100894;-74
2022/04/22 09:07:39;;;;;;;8.30;6.28;;;;;;;;;;4992004;28;100313;-73
2022/04/22 09:10:06;;;;;;;9.07;7.45;;;;;;;;;;4991469;28;98544;-73
2022/04/22 09:12:34;;;;;;;14.00;7.18;;;;;;;;;;4991104;28;100032;-73
2022/04/22 09:15:01;;;;;;;7.30;6.60;;;;;;;;;;4991775;28;99787;-73
2022/04/22 09:17:28;;;;;;;11.18;6.82;;;;;;;;;;4991004;28;98507;-73
2022/04/22 09:19:57;;;;;;;10.48;6.47;;;;;;;;;;4992070;28;99979;-73
2022/04/22 09:22:24;;;;;;;8.27;6.57;;;;;;;;;;4991649;28;100151;-74
2022/04/22 09:24:52;;;;;;;6.53;5.90;;;;;;;;;;4995085;28;98556;-74
2022/04/22 09:27:19;;;;;;;6.55;5.80;;;;;;;;;;4990537;28;100162;-74
2022/04/22 09:29:53;;;;;;;8.75;6.53;;;;;;;;;;4991864;28;98495;-73
2022/04/22 09:32:22;;;;;;;6.57;5.90;;;;;;;;;;4992221;28;99061;-73
2022/04/22 09:34:49;;;;;;;8.27;6.40;;;;;;;;;;4991000;28;99525;-74
2022/04/22 09:42:47;;;;;;;10.30;5.57;;;;;;;;;;4971901;28;99355;-74
2022/04/22 09:45:14;;;;;;;7.80;5.55;;;;;;;;;;4975554;28;98343;-74
2022/04/22 09:47:41;;;;;;;9.25;5.70;;;;;;;;;;4970438;28;100228;-73
2022/04/22 09:50:11;;;;;;;5.90;5.03;;;;;;;;;;4971132;28;98641;-73
2022/04/22 09:52:43;;;;;;;8.52;5.32;;;;;;;;;;4983344;28;100225;-74
2022/04/22 09:55:10;;;;;;;8.73;5.50;;;;;;;;;;4990622;28;100214;-74
2022/04/22 09:57:49;;;;;;;7.85;5.57;;;;;;;;;;4991443;28;98573;-74
2022/04/22 10:00:16;;;;;;;7.20;5.15;;;;;;;;;;4991787;28;99343;-74
2022/04/22 10:02:43;;;;;;;5.20;4.60;;;;;;;;;;4989724;28;99296;-74
2022/04/22 10:05:10;;;;;;;7.85;5.28;;;;;;;;;;4992077;28;98593;-74
2022/04/22 10:07:37;;;;;;;9.02;5.85;;;;;;;;;;4980872;28;99777;-74
2022/04/22 10:10:04;;;;;;;6.97;5.90;;;;;;;;;;4971308;28;98037;-74
2022/04/22 10:12:34;;;;;;;5.95;5.32;;;;;;;;;;4972021;28;99257;-74
2022/04/22 10:15:01;;;;;;;8.18;5.07;;;;;;;;;;4971063;28;99651;-74
2022/04/22 10:17:27;;;;;;;6.35;4.80;;;;;;;;;;4971042;28;99274;-74
2022/04/22 10:19:54;;;;;;;8.90;5.57;;;;;;;;;;4971461;28;100995;-75
2022/04/22 10:22:21;;;;;;;7.47;4.90;;;;;;;;;;4988541;28;100948;-73
2022/04/22 10:24:49;;;;;;;8.55;4.90;;;;;;;;;;4990089;28;98609;-73
2022/04/22 10:27:17;;;;;;;9.07;5.30;;;;;;;;;;5003158;28;100249;-73
2022/04/22 10:29:43;;;;;;;7.20;5.65;;;;;;;;;;4998498;28;100953;-73
2022/04/22 10:32:11;;;;;;;10.07;5.80;;;;;;;;;;5011074;28;98950;-73
2022/04/22 10:34:41;;;;;;;8.82;5.85;;;;;;;;;;4998950;28;99501;-73
2022/04/22 10:37:16;;;;;;;8.32;4.82;;;;;;;;;;4990361;28;98551;-74
2022/04/22 10:39:42;;;;;;;6.82;4.90;;;;;;;;;;4990818;28;99303;-74
2022/04/22 10:42:13;;;;;;;12.82;4.80;;;;;;;;;;4989824;28;102018;-74
2022/04/22 10:47:36;;;;;;;6.90;4.97;;;;;;;;;;4991291;28;99962;-73
2022/04/22 10:50:21;;;;;;;10.07;4.55;;;;;;;;;;4990721;28;100264;-73
2022/04/22 10:53:04;;;;;;;9.02;4.85;;;;;;;;;;4993367;28;99892;-73
2022/04/22 10:55:31;;;;;;;3.30;3.10;;;;;;;;;;4989966;28;99652;-73
2022/04/22 10:58:12;;;;;;;4.53;3.42;;;;;;;;;;4994382;28;98869;-74
2022/04/22 11:00:42;;;;;;;5.32;3.28;;;;;;;;;;4980589;28;100477;-73
2022/04/22 11:03:15;;;;;;;4.00;3.70;;;;;;;;;;4991139;28;99383;-75
2022/04/22 11:06:02;;;;;;;4.78;4.00;;;;;;;;;;4998425;28;98723;-74
2022/04/22 11:08:31;;;;;;;4.63;3.70;;;;;;;;;;4996106;28;99478;-73
2022/04/22 11:11:02;;;;;;;4.38;3.15;;;;;;;;;;4989619;28;100339;-74
2022/04/22 11:13:39;;;;;;;4.35;3.08;;;;;;;;;;5002280;28;99615;-74
2022/04/22 11:16:06;;;;;;;3.90;3.28;;;;;;;;;;5002096;28;100286;-74
2022/04/22 11:18:34;;;;;;;5.78;3.35;;;;;;;;;;4995594;28;99532;-74
2022/04/22 11:21:02;;;;;;;4.18;2.95;;;;;;;;;;4989576;28;99955;-73
2022/04/22 11:23:39;;;;;;;5.30;2.75;;;;;;;;;;4990607;28;99621;-74
2022/04/22 11:26:07;;;;;;;1.98;1.88;;;;;;;;;;4987507;28;98888;-74
2022/04/22 11:28:34;;;;;;;3.35;2.83;;;;;;;;;;4996981;28;100366;-74
2022/04/22 11:31:05;;;;;;;7.43;2.95;;;;;;;;;;4980233;28;99650;-73
2022/04/22 11:33:55;;;;;;;11.70;3.10;;;;;;;;;;4982450;28;100885;-74
2022/04/22 11:36:22;;;;;;;2.58;2.47;;;;;;;;;;4987861;28;101204;-74
2022/04/22 11:38:49;;;;;;;5.55;2.60;;;;;;;;;;4988650;28;99039;-73
2022/04/22 11:41:16;;;;;;;2.47;2.28;;;;;;;;;;4979581;28;99899;-74
2022/04/22 11:43:43;;;;;;;2.67;2.28;;;;;;;;;;4987204;28;100347;-75
2022/04/22 11:46:12;;;;;;;2.65;2.45;;;;;;;;;;4987620;28;98794;-73
2022/04/22 11:48:45;;;;;;;2.80;2.60;;;;;;;;;;4987333;28;101928;-76
2022/04/22 11:51:18;;;;;;;5.00;2.60;;;;;;;;;;4982163;28;99965;-73
2022/04/22 11:53:45;;;;;;;6.07;2.88;;;;;;;;;;4976040;28;98748;-73
2022/04/22 11:56:15;;;;;;;2.80;2.58;;;;;;;;;;4989320;28;100187;-73
2022/04/22 11:58:42;;;;;;;4.63;3.17;;;;;;;;;;4982083;28;101354;-74
2022/04/22 12:06:57;;;;;;;10.38;2.75;;;;;;;;;;4970703;28;98554;-73
2022/04/22 12:09:23;;;;;;;9.13;2.78;;;;;;;;;;4968852;28;99175;-73
2022/04/22 12:11:50;;;;;;;6.75;2.50;;;;;;;;;;4986326;28;100285;-73
2022/04/22 12:14:24;;;;;;;5.20;3.13;;;;;;;;;;4989506;28;98645;-73
2022/04/22 12:17:01;;;;;;;3.03;2.72;;;;;;;;;;4989327;28;99167;-73
2022/04/22 12:19:28;;;;;;;6.15;2.65;;;;;;;;;;4977673;28;100666;-73
2022/04/22 12:21:54;;;;;;;5.07;3.13;;;;;;;;;;4973678;28;98544;-73
2022/04/22 12:24:21;;;;;;;3.72;2.95;;;;;;;;;;4967902;28;101038;-73
2022/04/22 12:26:48;;;;;;;7.70;3.15;;;;;;;;;;4980560;28;98547;-73
2022/04/22 12:29:15;;;;;;;10.95;2.92;;;;;;;;;;4988799;28;99261;-74
2022/04/22 12:31:50;;;;;;;7.72;2.45;;;;;;;;;;4988940;28;100156;-74
2022/04/22 12:34:28;;;;;;;4.00;2.80;;;;;;;;;;4989244;28;98560;-74
2022/04/22 12:36:55;;;;;;;4.22;2.90;;;;;;;;;;4988588;28;100402;-74
2022/04/22 12:39:51;;;;;;;5.15;3.17;;;;;;;;;;4987796;28;99628;-73
2022/04/22 12:42:17;;;;;;;2.67;2.47;;;;;;;;;;4974924;28;97885;-74
2022/04/22 12:52:08;;;;;;;13.68;3.50;;;;;;;;;;4972037;28;99219;-73
2022/04/22 12:53:28;;;;;;;9.73;2.63;;;;;;;;;;4969090;28;100245;-74
2022/04/22 12:56:03;;;;;;;3.42;3.03;;;;;;;;;;4969873;28;98648;-73
2022/04/22 12:58:29;;;;;;;4.95;3.15;;;;;;;;;;4969235;28;99058;-73
2022/04/22 13:00:56;;;;;;;7.85;3.22;;;;;;;;;;4968613;28;99455;-73
2022/04/22 13:03:34;;;;;;;5.22;3.10;;;;;;;;;;4969578;28;98613;-73
2022/04/22 13:06:00;;;;;;;7.63;2.83;;;;;;;;;;4968414;28;99321;-73
2022/04/22 13:08:26;;;;;;;6.07;3.58;;;;;;;;;;4972745;28;98964;-73
2022/04/22 13:10:57;;;;;;;7.05;2.88;;;;;;;;;;4980610;28;99406;-73
2022/04/22 13:13:24;;;;;;;10.70;3.78;;;;;;;;;;4987749;28;100309;-73
2022/04/22 13:15:50;;;;;;;8.00;3.25;;;;;;;;;;4988595;28;99694;-73
2022/04/22 13:18:18;;;;;;;7.38;3.05;;;;;;;;;;4990047;28;100597;-73
2022/04/22 13:20:44;;;;;;;18.40;3.22;;;;;;;;;;4988396;28;100471;-73
2022/04/22 13:23:11;;;;;;;3.47;2.67;;;;;;;;;;4988938;28;99886;-73
2022/04/22 13:25:37;;;;;;;4.50;2.40;;;;;;;;;;4991096;28;99314;-73
2022/04/22 13:28:04;;;;;;;2.92;2.72;;;;;;;;;;4991945;28;99227;-73
2022/04/22 13:30:36;;;;;;;4.53;2.92;;;;;;;;;;4995345;28;98542;-73
2022/04/22 13:33:03;;;;;;;8.35;3.20;;;;;;;;;;4991372;28;98592;-73
2022/04/22 13:35:29;;;;;;;3.35;2.65;;;;;;;;;;4990737;28;98660;-73
2022/04/22 13:37:56;;;;;;;3.25;2.38;;;;;;;;;;4991918;28;99906;-73
2022/04/22 13:40:22;;;;;;;6.70;2.70;;;;;;;;;;4989664;28;101280;-73
2022/04/22 13:42:48;;;;;;;11.55;2.53;;;;;;;;;;4991852;28;98621;-73
2022/04/22 13:53:40;;;;;;;3.22;2.65;;;;;;;;;;4990848;28;99825;-72
2022/04/22 13:56:07;;;;;;;3.75;2.22;;;;;;;;;;4991606;28;98575;-71
2022/04/22 13:58:36;;;;;;;4.90;3.00;;;;;;;;;;4991871;28;99994;-74
2022/04/22 14:01:03;;;;;;;4.80;2.78;;;;;;;;;;4990201;28;100539;-73
2022/04/22 14:03:29;;;;;;;8.02;2.85;;;;;;;;;;4988591;28;98779;-74
2022/04/22 14:05:56;;;;;;;4.82;2.92;;;;;;;;;;4979768;28;100369;-73
2022/04/22 14:08:22;;;;;;;7.60;2.20;;;;;;;;;;4988572;28;100588;-73
2022/04/22 14:10:48;;;;;;;6.95;2.25;;;;;;;;;;4990765;28;98553;-74
2022/04/22 14:13:15;;;;;;;4.30;2.60;;;;;;;;;;4994472;28;99033;-72
2022/04/22 14:15:41;;;;;;;6.25;2.70;;;;;;;;;;4977188;28;98549;-73
2022/04/22 14:18:08;;;;;;;5.97;2.38;;;;;;;;;;4972009;28;99157;-73
2022/04/22 14:20:35;;;;;;;3.38;2.53;;;;;;;;;;4970779;28;100434;-74
2022/04/22 14:23:01;;;;;;;7.05;2.42;;;;;;;;;;4971188;28;97759;-75
2022/04/22 14:25:28;;;;;;;2.83;2.63;;;;;;;;;;4971062;28;99038;-74
2022/04/22 14:27:54;;;;;;;8.43;2.80;;;;;;;;;;4971006;28;100290;-74
2022/04/22 14:30:20;;;;;;;4.90;2.38;;;;;;;;;;4970117;28;99311;-73
2022/04/22 14:32:47;;;;;;;10.90;2.80;;;;;;;;;;4988584;28;100566;-73
2022/04/22 14:35:13;;;;;;;6.60;2.67;;;;;;;;;;4993386;28;99472;-74
2022/04/22 14:37:40;;;;;;;6.82;2.92;;;;;;;;;;4989964;28;99195;-73
2022/04/22 14:40:06;;;;;;;6.05;3.45;;;;;;;;;;4990923;28;100195;-74
2022/04/22 14:42:33;;;;;;;5.03;3.00;;;;;;;;;;4990928;28;98541;-74
2022/04/22 14:44:59;;;;;;;4.85;3.20;;;;;;;;;;4990099;28;100049;-74
2022/04/22 14:47:26;;;;;;;3.17;2.88;;;;;;;;;;4991084;28;98755;-74
2022/04/22 14:49:52;;;;;;;4.53;3.22;;;;;;;;;;4990288;28;98580;-74
2022/04/22 14:52:19;;;;;;;3.63;3.30;;;;;;;;;;4990529;28;99025;-73
2022/04/22 14:54:45;;;;;;;9.13;3.08;;;;;;;;;;4990074;28;100321;-74
2022/04/22 14:57:11;;;;;;;3.95;3.30;;;;;;;;;;4993654;28;98593;-74
2022/04/22 14:59:38;;;;;;;9.95;3.35;;;;;;;;;;4990175;28;100515;-73
2022/04/22 15:02:07;;;;;;;6.22;3.65;;;;;;;;;;4991430;28;98557;-74
2022/04/22 15:04:33;;;;;;;2.90;2.70;;;;;;;;;;4989689;28;100016;-74
2022/04/22 15:07:00;;;;;;;7.93;3.67;;;;;;;;;;4990341;28;100306;-73
2022/04/22 15:09:27;;;;;;;7.03;4.38;;;;;;;;;;4989835;28;98603;-73
2022/04/22 15:11:53;;;;;;;8.35;4.22;;;;;;;;;;4986961;28;99958;-73
2022/04/22 15:14:20;;;;;;;5.80;3.13;;;;;;;;;;4977589;28;100257;-73
2022/04/22 15:16:46;;;;;;;3.92;3.58;;;;;;;;;;4991636;28;98572;-74
2022/04/22 15:24:42;;;;;;;7.28;4.80;;;;;;;;;;4989918;28;100006;-73
2022/04/22 15:27:09;;;;;;;7.43;2.72;;;;;;;;;;4989525;28;100022;-75
2022/04/22 15:29:37;;;;;;;8.15;4.15;;;;;;;;;;4990081;28;99503;-74
2022/04/22 15:32:05;;;;;;;6.88;3.88;;;;;;;;;;4989449;28;100141;-73
2022/04/22 15:34:31;;;;;;;6.13;3.78;;;;;;;;;;4998650;28;100583;-74
2022/04/22 15:36:58;;;;;;;10.30;3.92;;;;;;;;;;4990596;28;98600;-74
2022/04/22 15:39:24;;;;;;;6.85;3.90;;;;;;;;;;4980980;28;99916;-73
2022/04/22 15:41:53;;;;;;;10.52;4.25;;;;;;;;;;4989522;28;100687;-74
2022/04/22 15:44:26;;;;;;;8.20;4.22;;;;;;;;;;5003713;28;99244;-74
2022/04/22 15:46:53;;;;;;;4.78;3.90;;;;;;;;;;4988644;28;100352;-74
2022/04/22 15:49:19;;;;;;;9.82;3.72;;;;;;;;;;5001548;28;98615;-73
2022/04/22 15:51:46;;;;;;;8.15;3.60;;;;;;;;;;5009685;28;99360;-72
2022/04/22 15:54:12;;;;;;;4.63;4.20;;;;;;;;;;4995212;28;99480;-73
2022/04/22 15:56:38;;;;;;;4.22;3.78;;;;;;;;;;5009484;28;98537;-73
2022/04/22 15:59:05;;;;;;;3.95;3.60;;;;;;;;;;5001315;28;99777;-73
2022/04/22 16:01:36;;;;;;;4.38;3.42;;;;;;;;;;5006729;28;99477;-73